createdAt,value
2023-04-22T00:00:09.652Z,79.93
2023-04-22T00:01:08.922Z,80.04
2023-04-22T00:02:10.700Z,79.83
2023-04-22T00:03:10.033Z,79.52
2023-04-22T00:04:09.214Z,80.24
2023-04-22T00:05:10.321Z,79.83
2023-04-22T00:06:09.650Z,79.73
2023-04-22T00:07:08.844Z,79.52
2023-04-22T00:08:10.459Z,79.73
2023-04-22T00:09:10.014Z,79.32
2023-04-22T00:10:09.754Z,78.60
2023-04-22T00:11:08.771Z,79.59
2023-04-22T00:12:10.649Z,79.18
2023-04-22T00:13:09.874Z,78.77
2023-04-22T00:14:08.732Z,80.72
2023-04-22T00:15:10.290Z,80.62
2023-04-22T00:16:10.385Z,80.10
2023-04-22T00:17:08.742Z,79.08
2023-04-22T00:18:10.483Z,79.96
2023-04-22T00:19:10.518Z,80.68
2023-04-22T00:20:08.672Z,79.82
2023-04-22T00:21:09.463Z,79.41
2023-04-22T00:22:08.630Z,78.45
2023-04-22T00:23:09.515Z,77.33
2023-04-22T00:24:09.349Z,76.44
2023-04-22T00:25:09.459Z,76.99
2023-04-22T00:26:09.374Z,77.33
2023-04-22T00:27:09.406Z,77.54
2023-04-22T00:28:09.370Z,77.54
2023-04-22T00:29:08.636Z,77.78
2023-04-22T00:30:09.338Z,77.88
2023-04-22T00:31:09.209Z,78.09
2023-04-22T00:32:09.379Z,78.60
2023-04-22T00:33:09.171Z,78.43
2023-04-22T00:34:09.409Z,78.53
2023-04-22T00:35:09.185Z,79.15
2023-04-22T00:36:09.320Z,79.36
2023-04-22T00:37:09.185Z,79.77
2023-04-22T00:38:09.311Z,80.07
2023-04-22T00:39:08.469Z,79.87
2023-04-22T00:40:09.360Z,80.28
2023-04-22T00:41:08.447Z,80.11
2023-04-22T00:42:10.111Z,80.21
2023-04-22T00:43:09.516Z,80.42
2023-04-22T00:44:08.441Z,80.63
2023-04-22T00:45:09.996Z,80.73
2023-04-22T00:46:09.399Z,81.24
2023-04-22T00:47:09.317Z,80.93
2023-04-22T00:48:09.330Z,81.14
2023-04-22T00:49:09.211Z,81.14
2023-04-22T00:50:08.347Z,81.96
2023-04-22T00:51:10.087Z,80.52
2023-04-22T00:52:09.390Z,80.52
2023-04-22T00:53:08.328Z,80.42
2023-04-22T00:54:09.880Z,80.42
2023-04-22T00:55:09.349Z,80.63
2023-04-22T00:56:08.267Z,80.21
2023-04-22T00:57:09.150Z,80.52
2023-04-22T00:58:09.055Z,80.11
2023-04-22T00:59:08.248Z,79.91
2023-04-22T01:00:09.807Z,79.80
2023-04-22T01:01:09.333Z,79.80
2023-04-22T01:02:09.325Z,79.70
2023-04-22T01:03:08.467Z,80.15
2023-04-22T01:04:09.359Z,81.07
2023-04-22T01:05:08.182Z,82.31
2023-04-22T01:06:09.011Z,81.59
2023-04-22T01:07:08.149Z,81.38
2023-04-22T01:08:09.730Z,81.90
2023-04-22T01:09:08.852Z,83.64
2023-04-22T01:10:08.137Z,82.68
2023-04-22T01:11:08.974Z,82.78
2023-04-22T01:12:08.157Z,82.68
2023-04-22T01:13:08.863Z,79.49
2023-04-22T01:14:08.735Z,79.29
2023-04-22T01:15:08.883Z,79.19
2023-04-22T01:16:08.829Z,78.88
2023-04-22T01:17:08.980Z,78.67
2023-04-22T01:18:08.773Z,78.98
2023-04-22T01:19:08.893Z,79.22
2023-04-22T01:20:08.745Z,79.63
2023-04-22T01:21:08.015Z,79.84
2023-04-22T01:22:09.232Z,80.15
2023-04-22T01:23:08.733Z,81.48
2023-04-22T01:24:07.983Z,80.25
2023-04-22T01:25:08.973Z,79.94
2023-04-22T01:26:07.963Z,80.39
2023-04-22T01:27:09.781Z,80.08
2023-04-22T01:28:09.011Z,80.60
2023-04-22T01:29:08.543Z,81.11
2023-04-22T01:30:07.932Z,81.42
2023-04-22T01:31:09.698Z,81.73
2023-04-22T01:32:09.207Z,81.83
2023-04-22T01:33:07.950Z,81.52
2023-04-22T01:34:09.453Z,81.93
2023-04-22T01:35:08.863Z,81.83
2023-04-22T01:36:07.862Z,81.93
2023-04-22T01:37:08.538Z,81.83
2023-04-22T01:38:08.679Z,81.73
2023-04-22T01:39:07.822Z,81.83
2023-04-22T01:40:08.663Z,82.24
2023-04-22T01:41:07.805Z,82.14
2023-04-22T01:42:09.443Z,81.83
2023-04-22T01:43:08.702Z,81.83
2023-04-22T01:44:07.763Z,82.14
2023-04-22T01:45:08.588Z,81.62
2023-04-22T01:46:07.842Z,81.83
2023-04-22T01:47:08.512Z,82.45
2023-04-22T01:48:08.468Z,82.65
2023-04-22T01:49:07.692Z,82.86
2023-04-22T01:50:09.211Z,82.45
2023-04-22T01:51:08.675Z,82.59
2023-04-22T01:52:07.743Z,82.34
2023-04-22T01:53:08.658Z,81.87
2023-04-22T01:54:08.423Z,82.34
2023-04-22T01:55:08.514Z,81.73
2023-04-22T01:56:07.649Z,81.42
2023-04-22T01:57:09.253Z,81.52
2023-04-22T01:58:08.645Z,81.62
2023-04-22T01:59:07.630Z,81.18
2023-04-22T02:00:09.124Z,80.66
2023-04-22T02:01:08.374Z,80.77
2023-04-22T02:02:07.688Z,80.63
2023-04-22T02:03:08.371Z,81.04
2023-04-22T02:04:07.594Z,80.11
2023-04-22T02:05:08.285Z,81.41
2023-04-22T02:06:08.362Z,80.49
2023-04-22T02:07:08.281Z,80.28
2023-04-22T02:08:08.323Z,77.61
2023-04-22T02:09:07.514Z,77.23
2023-04-22T02:10:08.734Z,78.13
2023-04-22T02:11:08.800Z,78.78
2023-04-22T02:12:07.463Z,79.50
2023-04-22T02:13:09.095Z,79.81
2023-04-22T02:14:08.593Z,80.26
2023-04-22T02:15:07.495Z,80.88
2023-04-22T02:16:08.161Z,81.19
2023-04-22T02:17:07.456Z,83.04
2023-04-22T02:18:08.892Z,83.04
2023-04-22T02:19:08.252Z,82.39
2023-04-22T02:20:07.398Z,82.59
2023-04-22T02:21:08.252Z,82.18
2023-04-22T02:22:07.430Z,82.28
2023-04-22T02:23:09.008Z,81.09
2023-04-22T02:24:08.043Z,81.49
2023-04-22T02:25:07.421Z,81.81
2023-04-22T02:26:08.772Z,81.29
2023-04-22T02:27:07.971Z,82.59
2023-04-22T02:28:07.386Z,83.00
2023-04-22T02:29:09.496Z,82.28
2023-04-22T02:30:08.241Z,82.07
2023-04-22T02:31:07.968Z,81.56
2023-04-22T02:32:07.304Z,81.67
2023-04-22T02:33:07.936Z,82.83
2023-04-22T02:34:08.035Z,81.70
2023-04-22T02:35:07.956Z,82.67
2023-04-22T02:36:08.047Z,82.97
2023-04-22T02:37:07.911Z,83.49
2023-04-22T02:38:07.233Z,82.97
2023-04-22T02:39:07.921Z,82.83
2023-04-22T02:40:08.055Z,82.83
2023-04-22T02:41:07.931Z,83.97
2023-04-22T02:42:07.151Z,83.35
2023-04-22T02:43:08.043Z,83.55
2023-04-22T02:44:07.167Z,83.14
2023-04-22T02:45:08.690Z,83.92
2023-04-22T02:46:08.205Z,83.31
2023-04-22T02:47:07.164Z,82.90
2023-04-22T02:48:08.080Z,81.46
2023-04-22T02:49:07.062Z,81.76
2023-04-22T02:50:07.779Z,81.21
2023-04-22T02:51:07.063Z,81.32
2023-04-22T02:52:08.613Z,81.11
2023-04-22T02:53:07.912Z,80.70
2023-04-22T02:54:07.761Z,80.70
2023-04-22T02:55:07.046Z,80.63
2023-04-22T02:56:07.741Z,81.15
2023-04-22T02:57:06.997Z,81.15
2023-04-22T02:58:07.751Z,81.25
2023-04-22T02:59:06.950Z,81.67
2023-04-22T03:00:08.493Z,80.94
2023-04-22T03:01:07.744Z,80.94
2023-04-22T03:02:07.180Z,80.84
2023-04-22T03:03:08.952Z,81.15
2023-04-22T03:04:08.719Z,81.91
2023-04-22T03:05:06.915Z,82.21
2023-04-22T03:06:08.722Z,82.21
2023-04-22T03:07:07.851Z,82.32
2023-04-22T03:08:06.856Z,81.29
2023-04-22T03:09:08.656Z,81.49
2023-04-22T03:10:07.680Z,82.53
2023-04-22T03:11:06.870Z,82.93
2023-04-22T03:12:08.703Z,81.70
2023-04-22T03:13:07.670Z,82.56
2023-04-22T03:14:06.792Z,83.28
2023-04-22T03:15:07.709Z,83.80
2023-04-22T03:16:06.801Z,82.83
2023-04-22T03:17:08.351Z,83.86
2023-04-22T03:18:07.786Z,83.55
2023-04-22T03:19:07.773Z,82.73
2023-04-22T03:20:07.501Z,81.91
2023-04-22T03:21:06.736Z,81.76
2023-04-22T03:22:08.513Z,83.31
2023-04-22T03:23:08.630Z,83.11
2023-04-22T03:24:06.682Z,81.52
2023-04-22T03:25:07.493Z,81.73
2023-04-22T03:26:07.489Z,81.83
2023-04-22T03:27:07.258Z,82.65
2023-04-22T03:28:07.474Z,81.32
2023-04-22T03:29:07.442Z,80.19
2023-04-22T03:30:07.561Z,80.43
2023-04-22T03:31:07.291Z,80.84
2023-04-22T03:32:06.632Z,80.53
2023-04-22T03:33:08.521Z,80.63
2023-04-22T03:34:08.177Z,80.22
2023-04-22T03:35:06.572Z,80.94
2023-04-22T03:36:07.801Z,81.15
2023-04-22T03:37:07.077Z,80.98
2023-04-22T03:38:06.561Z,81.19
2023-04-22T03:39:08.295Z,81.81
2023-04-22T03:40:07.484Z,82.21
2023-04-22T03:41:07.285Z,81.84
2023-04-22T03:42:07.085Z,81.60
2023-04-22T03:43:06.494Z,82.11
2023-04-22T03:44:07.797Z,82.42
2023-04-22T03:45:07.184Z,82.63
2023-04-22T03:46:07.111Z,82.93
2023-04-22T03:47:07.274Z,83.04
2023-04-22T03:48:07.109Z,83.45
2023-04-22T03:49:06.437Z,82.67
2023-04-22T03:50:07.188Z,82.67
2023-04-22T03:51:07.320Z,82.77
2023-04-22T03:52:07.172Z,82.56
2023-04-22T03:53:07.231Z,82.46
2023-04-22T03:54:06.395Z,82.67
2023-04-22T03:55:08.102Z,82.77
2023-04-22T03:56:07.447Z,82.87
2023-04-22T03:57:06.403Z,83.18
2023-04-22T03:58:07.885Z,83.39
2023-04-22T03:59:07.280Z,83.53
2023-04-22T04:00:07.133Z,83.53
2023-04-22T04:01:06.327Z,83.73
2023-04-22T04:02:08.151Z,84.87
2023-04-22T04:03:08.101Z,83.73
2023-04-22T04:04:07.244Z,84.72
2023-04-22T04:05:07.101Z,83.70
2023-04-22T04:06:06.322Z,83.28
2023-04-22T04:07:07.773Z,83.18
2023-04-22T04:08:07.114Z,83.18
2023-04-22T04:09:06.291Z,82.87
2023-04-22T04:10:07.908Z,83.18
2023-04-22T04:11:07.395Z,83.28
2023-04-22T04:12:06.193Z,83.12
2023-04-22T04:13:07.857Z,83.42
2023-04-22T04:14:07.292Z,83.63
2023-04-22T04:15:06.212Z,83.63
2023-04-22T04:16:06.841Z,83.42
2023-04-22T04:17:06.145Z,83.63
2023-04-22T04:18:07.952Z,84.56
2023-04-22T04:19:07.252Z,84.14
2023-04-22T04:20:06.112Z,84.25
2023-04-22T04:21:07.694Z,84.25
2023-04-22T04:22:06.792Z,84.14
2023-04-22T04:23:06.062Z,84.14
2023-04-22T04:24:07.855Z,83.80
2023-04-22T04:25:07.291Z,84.11
2023-04-22T04:26:06.049Z,84.00
2023-04-22T04:27:06.963Z,83.80
2023-04-22T04:28:06.063Z,83.90
2023-04-22T04:29:06.621Z,83.76
2023-04-22T04:30:06.823Z,83.14
2023-04-22T04:31:06.708Z,83.00
2023-04-22T04:32:06.034Z,82.39
2023-04-22T04:33:07.519Z,82.55
2023-04-22T04:34:06.772Z,82.04
2023-04-22T04:35:05.960Z,81.11
2023-04-22T04:36:07.770Z,81.21
2023-04-22T04:37:07.010Z,81.83
2023-04-22T04:38:05.980Z,81.79
2023-04-22T04:39:07.441Z,81.28
2023-04-22T04:40:06.790Z,80.87
2023-04-22T04:41:05.895Z,81.04
2023-04-22T04:42:06.651Z,80.52
2023-04-22T04:43:05.918Z,80.42
2023-04-22T04:44:07.665Z,80.38
2023-04-22T04:45:06.931Z,79.97
2023-04-22T04:46:06.519Z,79.77
2023-04-22T04:47:05.954Z,79.66
2023-04-22T04:48:07.767Z,79.42
2023-04-22T04:49:07.127Z,79.42
2023-04-22T04:50:06.484Z,78.81
2023-04-22T04:51:05.768Z,78.67
2023-04-22T04:52:07.633Z,78.67
2023-04-22T04:53:06.952Z,78.05
2023-04-22T04:54:05.749Z,77.95
2023-04-22T04:55:07.492Z,77.95
2023-04-22T04:56:06.785Z,78.46
2023-04-22T04:57:06.660Z,78.16
2023-04-22T04:58:06.550Z,78.46
2023-04-22T04:59:06.310Z,78.46
2023-04-22T05:00:06.594Z,78.05
2023-04-22T05:01:05.665Z,77.44
2023-04-22T05:02:06.673Z,76.92
2023-04-22T05:03:05.770Z,76.92
2023-04-22T05:04:07.431Z,78.19
2023-04-22T05:05:06.776Z,77.17
2023-04-22T05:06:05.718Z,77.06
2023-04-22T05:07:07.186Z,78.19
2023-04-22T05:08:06.531Z,77.37
2023-04-22T05:09:05.581Z,77.95
2023-04-22T05:10:06.785Z,78.46
2023-04-22T05:11:06.112Z,77.54
2023-04-22T05:12:05.622Z,77.44
2023-04-22T05:13:07.052Z,76.51
2023-04-22T05:14:06.463Z,76.58
2023-04-22T05:15:06.333Z,77.50
2023-04-22T05:16:06.181Z,76.78
2023-04-22T05:17:06.288Z,76.89
2023-04-22T05:18:06.199Z,76.75
2023-04-22T05:19:06.413Z,76.44
2023-04-22T05:20:06.203Z,77.73
2023-04-22T05:21:06.233Z,75.69
2023-04-22T05:22:06.138Z,77.02
2023-04-22T05:23:05.447Z,75.07
2023-04-22T05:24:07.219Z,75.76
2023-04-22T05:25:06.318Z,75.10
2023-04-22T05:26:06.157Z,75.10
2023-04-22T05:27:05.394Z,74.26
2023-04-22T05:28:06.164Z,74.46
2023-04-22T05:29:06.985Z,73.91
2023-04-22T05:30:06.270Z,74.32
2023-04-22T05:31:06.095Z,74.22
2023-04-22T05:32:06.386Z,73.68
2023-04-22T05:33:06.054Z,72.45
2023-04-22T05:34:06.186Z,71.46
2023-04-22T05:35:06.023Z,72.34
2023-04-22T05:36:05.295Z,72.34
2023-04-22T05:37:06.056Z,72.14
2023-04-22T05:38:07.111Z,72.86
2023-04-22T05:39:06.986Z,71.63
2023-04-22T05:40:07.310Z,71.80
2023-04-22T05:41:06.992Z,72.21
2023-04-22T05:42:06.173Z,72.21
2023-04-22T05:43:06.030Z,71.36
2023-04-22T05:44:05.999Z,70.34
2023-04-22T05:45:06.076Z,70.31
2023-04-22T05:46:05.227Z,70.14
2023-04-22T05:47:06.780Z,67.86
2023-04-22T05:48:05.915Z,66.88
2023-04-22T05:49:05.965Z,65.91
2023-04-22T05:50:06.054Z,64.32
2023-04-22T05:51:05.155Z,63.07
2023-04-22T05:52:05.824Z,62.43
2023-04-22T05:53:05.937Z,60.85
2023-04-22T05:54:05.190Z,60.82
2023-04-22T05:55:06.312Z,59.17
2023-04-22T05:56:05.803Z,59.55
2023-04-22T05:57:05.066Z,59.58
2023-04-22T05:58:05.932Z,59.58
2023-04-22T05:59:05.634Z,59.17
2023-04-22T06:00:05.882Z,60.08
2023-04-22T06:01:05.048Z,60.72
2023-04-22T06:02:05.868Z,60.11
2023-04-22T06:03:05.899Z,61.36
2023-04-22T06:04:07.093Z,61.25
2023-04-22T06:05:06.156Z,62.40
2023-04-22T06:06:06.895Z,62.71
2023-04-22T06:07:06.711Z,62.71
2023-04-22T06:08:05.810Z,62.51
2023-04-22T06:09:05.631Z,62.51
2023-04-22T06:10:05.895Z,62.30
2023-04-22T06:11:06.693Z,63.32
2023-04-22T06:12:05.814Z,62.51
2023-04-22T06:13:05.773Z,63.32
2023-04-22T06:14:05.554Z,63.85
2023-04-22T06:15:05.694Z,63.88
2023-04-22T06:16:05.750Z,64.67
2023-04-22T06:17:06.665Z,64.15
2023-04-22T06:18:05.553Z,64.06
2023-04-22T06:19:06.712Z,64.23
2023-04-22T06:20:05.515Z,64.23
2023-04-22T06:21:06.780Z,64.10
2023-04-22T06:22:06.599Z,64.10
2023-04-22T06:23:06.739Z,63.76
2023-04-22T06:24:05.479Z,63.26
2023-04-22T06:25:06.622Z,63.76
2023-04-22T06:26:05.515Z,64.04
2023-04-22T06:27:05.592Z,63.73
2023-04-22T06:28:05.510Z,64.21
2023-04-22T06:29:06.412Z,61.47
2023-04-22T06:30:06.629Z,61.58
2023-04-22T06:31:05.390Z,61.60
2023-04-22T06:32:04.700Z,60.28
2023-04-22T06:33:06.542Z,61.53
2023-04-22T06:34:05.561Z,60.89
2023-04-22T06:35:05.374Z,60.89
2023-04-22T06:36:04.703Z,60.66
2023-04-22T06:37:05.351Z,60.26
2023-04-22T06:38:05.436Z,60.16
2023-04-22T06:39:05.351Z,61.07
2023-04-22T06:40:05.432Z,59.85
2023-04-22T06:41:06.409Z,59.95
2023-04-22T06:42:05.554Z,60.36
2023-04-22T06:43:05.336Z,60.74
2023-04-22T06:44:05.251Z,60.33
2023-04-22T06:45:05.481Z,60.53
2023-04-22T06:46:06.514Z,60.10
2023-04-22T06:47:05.500Z,60.07
2023-04-22T06:48:05.301Z,58.86
2023-04-22T06:49:06.430Z,58.56
2023-04-22T06:50:06.238Z,59.06
2023-04-22T06:51:06.344Z,58.56
2023-04-22T06:52:06.184Z,59.27
2023-04-22T06:53:06.384Z,58.83
2023-04-22T06:54:05.221Z,59.64
2023-04-22T06:55:05.291Z,58.63
2023-04-22T06:56:05.211Z,58.91
2023-04-22T06:57:05.219Z,57.92
2023-04-22T06:58:05.191Z,58.09
2023-04-22T06:59:05.056Z,58.50
2023-04-22T07:00:05.189Z,58.60
2023-04-22T07:01:06.122Z,58.30
2023-04-22T07:02:06.366Z,57.76
2023-04-22T07:03:05.145Z,58.58
2023-04-22T07:04:06.207Z,58.25
2023-04-22T07:05:05.068Z,56.83
2023-04-22T07:06:05.179Z,56.15
2023-04-22T07:07:06.050Z,57.18
2023-04-22T07:08:06.174Z,56.56
2023-04-22T07:09:06.066Z,57.64
2023-04-22T07:10:06.093Z,56.68
2023-04-22T07:11:06.125Z,55.24
2023-04-22T07:12:06.179Z,55.79
2023-04-22T07:13:05.008Z,55.26
2023-04-22T07:14:05.924Z,56.10
2023-04-22T07:15:06.074Z,55.69
2023-04-22T07:16:04.986Z,54.58
2023-04-22T07:17:05.047Z,55.36
2023-04-22T07:18:04.197Z,54.96
2023-04-22T07:19:06.024Z,54.73
2023-04-22T07:20:04.932Z,54.53
2023-04-22T07:21:05.012Z,54.33
2023-04-22T07:22:04.970Z,55.51
2023-04-22T07:23:04.998Z,53.90
2023-04-22T07:24:04.930Z,54.10
2023-04-22T07:25:04.931Z,53.80
2023-04-22T07:26:04.135Z,53.50
2023-04-22T07:27:05.276Z,53.92
2023-04-22T07:28:05.167Z,54.10
2023-04-22T07:29:04.102Z,54.18
2023-04-22T07:30:05.854Z,52.34
2023-04-22T07:31:04.744Z,52.37
2023-04-22T07:32:04.125Z,53.07
2023-04-22T07:33:05.412Z,52.44
2023-04-22T07:34:04.529Z,51.73
2023-04-22T07:35:04.040Z,52.94
2023-04-22T07:36:05.732Z,51.71
2023-04-22T07:37:05.119Z,52.44
2023-04-22T07:38:03.992Z,52.39
2023-04-22T07:39:05.773Z,51.79
2023-04-22T07:40:04.896Z,51.04
2023-04-22T07:41:03.968Z,52.12
2023-04-22T07:42:04.795Z,50.01
2023-04-22T07:43:04.731Z,50.61
2023-04-22T07:44:04.548Z,50.89
2023-04-22T07:45:03.978Z,48.68
2023-04-22T07:46:05.937Z,49.58
2023-04-22T07:47:04.732Z,49.54
2023-04-22T07:48:03.964Z,46.68
2023-04-22T07:49:05.543Z,48.21
2023-04-22T07:50:04.900Z,47.24
2023-04-22T07:51:04.727Z,46.46
2023-04-22T07:52:03.854Z,45.76
2023-04-22T07:53:04.701Z,47.04
2023-04-22T07:54:03.817Z,45.29
2023-04-22T07:55:05.532Z,43.70
2023-04-22T07:56:04.588Z,45.04
2023-04-22T07:57:03.868Z,45.96
2023-04-22T07:58:04.599Z,46.34
2023-04-22T07:59:03.796Z,45.39
2023-04-22T08:00:05.389Z,45.17
2023-04-22T08:01:04.738Z,43.82
2023-04-22T08:02:04.205Z,43.91
2023-04-22T08:03:05.552Z,44.34
2023-04-22T08:04:05.169Z,45.28
2023-04-22T08:05:03.864Z,45.56
2023-04-22T08:06:05.462Z,44.04
2023-04-22T08:07:17.169Z,42.99
2023-04-22T08:08:05.334Z,42.57
2023-04-22T08:09:04.764Z,43.79
2023-04-22T08:10:03.668Z,44.07
2023-04-22T08:11:03.652Z,42.24
2023-04-22T08:12:05.580Z,41.31
2023-04-22T08:13:03.627Z,41.88
2023-04-22T08:14:03.641Z,40.32
2023-04-22T08:15:05.354Z,41.11
2023-04-22T08:16:04.837Z,41.85
2023-04-22T08:17:03.579Z,41.09
2023-04-22T08:18:04.867Z,38.49
2023-04-22T08:19:04.084Z,37.70
2023-04-22T08:20:06.595Z,38.39
2023-04-22T08:21:03.559Z,38.41
2023-04-22T08:22:05.271Z,38.95
2023-04-22T08:23:04.739Z,40.06
2023-04-22T08:24:03.529Z,40.64
2023-04-22T08:25:05.203Z,39.50
2023-04-22T08:26:04.628Z,39.01
2023-04-22T08:27:03.568Z,38.21
2023-04-22T08:28:04.269Z,38.28
2023-04-22T08:29:04.073Z,36.17
2023-04-22T08:30:03.445Z,37.48
2023-04-22T08:31:04.179Z,35.97
2023-04-22T08:32:03.481Z,36.57
2023-04-22T08:33:05.242Z,37.90
2023-04-22T08:34:04.560Z,35.67
2023-04-22T08:35:05.501Z,35.69
2023-04-22T08:36:03.410Z,36.20
2023-04-22T08:37:04.975Z,35.94
2023-04-22T08:38:04.178Z,36.79
2023-04-22T08:39:03.409Z,35.17
2023-04-22T08:40:05.180Z,34.84
2023-04-22T08:41:04.350Z,34.76
2023-04-22T08:42:03.359Z,35.34
2023-04-22T08:43:04.883Z,35.09
2023-04-22T08:44:04.277Z,35.53
2023-04-22T08:45:03.292Z,33.04
2023-04-22T08:46:05.630Z,32.85
2023-04-22T08:47:04.951Z,33.37
2023-04-22T08:48:03.318Z,33.36
2023-04-22T08:49:04.969Z,33.18
2023-04-22T08:50:04.230Z,34.27
2023-04-22T08:51:03.212Z,33.90
2023-04-22T08:52:05.231Z,34.78
2023-04-22T08:53:03.202Z,33.08
2023-04-22T08:54:03.201Z,34.31
2023-04-22T08:55:04.903Z,33.42
2023-04-22T08:56:04.863Z,33.70
2023-04-22T08:57:04.000Z,35.04
2023-04-22T08:58:03.221Z,34.74
2023-04-22T08:59:03.150Z,34.13
2023-04-22T09:00:04.030Z,34.53
2023-04-22T09:01:03.190Z,34.23
2023-04-22T09:02:04.548Z,33.52
2023-04-22T09:03:03.895Z,33.94
2023-04-22T09:04:03.163Z,34.92
2023-04-22T09:05:04.397Z,35.05
2023-04-22T09:06:03.760Z,32.77
2023-04-22T09:07:03.780Z,33.13
2023-04-22T09:08:03.118Z,32.39
2023-04-22T09:09:03.789Z,31.32
2023-04-22T09:10:03.028Z,32.82
2023-04-22T09:11:04.058Z,31.13
2023-04-22T09:12:03.849Z,31.24
2023-04-22T09:13:03.014Z,31.54
2023-04-22T09:14:03.708Z,31.56
2023-04-22T09:15:02.992Z,33.08
2023-04-22T09:16:03.738Z,32.71
2023-04-22T09:17:02.971Z,34.10
2023-04-22T09:18:03.757Z,33.89
2023-04-22T09:19:02.916Z,34.08
2023-04-22T09:20:04.367Z,33.26
2023-04-22T09:21:03.779Z,32.77
2023-04-22T09:22:02.941Z,32.65
2023-04-22T09:23:04.535Z,34.10
2023-04-22T09:24:03.989Z,33.34
2023-04-22T09:25:02.868Z,36.48
2023-04-22T09:26:04.437Z,36.74
2023-04-22T09:27:03.797Z,34.00
2023-04-22T09:28:02.846Z,34.89
2023-04-22T09:29:04.552Z,33.49
2023-04-22T09:30:03.912Z,32.67
2023-04-22T09:31:03.461Z,32.24
2023-04-22T09:32:02.859Z,31.47
2023-04-22T09:33:04.450Z,32.92
2023-04-22T09:34:03.951Z,31.11
2023-04-22T09:35:02.778Z,32.70
2023-04-22T09:36:03.806Z,33.51
2023-04-22T09:37:03.188Z,32.78
2023-04-22T09:38:03.579Z,33.95
2023-04-22T09:39:02.719Z,32.45
2023-04-22T09:40:04.472Z,32.35
2023-04-22T09:41:03.854Z,31.73
2023-04-22T09:42:03.528Z,32.16
2023-04-22T09:43:02.728Z,31.78
2023-04-22T09:44:03.862Z,31.81
2023-04-22T09:45:03.506Z,30.61
2023-04-22T09:46:03.382Z,30.82
2023-04-22T09:47:03.426Z,31.73
2023-04-22T09:48:02.779Z,30.95
2023-04-22T09:49:04.292Z,31.45
2023-04-22T09:50:03.771Z,31.54
2023-04-22T09:51:02.570Z,32.34
2023-04-22T09:52:04.081Z,31.71
2023-04-22T09:53:03.509Z,30.60
2023-04-22T09:54:02.627Z,30.02
2023-04-22T09:55:04.401Z,31.04
2023-04-22T09:56:04.129Z,30.94
2023-04-22T09:57:03.358Z,31.65
2023-04-22T09:58:02.539Z,31.99
2023-04-22T09:59:04.300Z,32.67
2023-04-22T10:00:04.401Z,31.97
2023-04-22T10:01:02.534Z,33.00
2023-04-22T10:02:02.792Z,32.31
2023-04-22T10:03:05.442Z,31.87
2023-04-22T10:04:04.015Z,31.48
2023-04-22T10:05:02.440Z,33.22
2023-04-22T10:06:03.538Z,32.31
2023-04-22T10:07:02.449Z,32.91
2023-04-22T10:08:03.497Z,31.88
2023-04-22T10:09:02.396Z,31.49
2023-04-22T10:10:04.213Z,33.98
2023-04-22T10:11:03.461Z,33.22
2023-04-22T10:12:02.429Z,33.34
2023-04-22T10:13:03.151Z,34.36
2023-04-22T10:14:03.138Z,34.52
2023-04-22T10:15:02.328Z,33.65
2023-04-22T10:16:03.378Z,32.98
2023-04-22T10:17:02.374Z,32.79
2023-04-22T10:18:04.191Z,32.65
2023-04-22T10:19:03.609Z,31.62
2023-04-22T10:20:03.965Z,30.74
2023-04-22T10:21:02.249Z,31.46
2023-04-22T10:22:03.965Z,33.11
2023-04-22T10:23:03.501Z,31.13
2023-04-22T10:24:02.295Z,31.96
2023-04-22T10:25:04.008Z,32.90
2023-04-22T10:26:03.936Z,31.27
2023-04-22T10:27:02.997Z,30.65
2023-04-22T10:28:02.215Z,30.26
2023-04-22T10:29:03.854Z,29.80
2023-04-22T10:30:03.404Z,30.15
2023-04-22T10:31:02.202Z,29.36
2023-04-22T10:32:03.023Z,29.72
2023-04-22T10:33:02.169Z,29.76
2023-04-22T10:34:02.991Z,30.35
2023-04-22T10:35:02.174Z,30.11
2023-04-22T10:36:03.825Z,30.23
2023-04-22T10:37:03.124Z,30.83
2023-04-22T10:38:02.084Z,30.82
2023-04-22T10:39:03.810Z,31.48
2023-04-22T10:40:03.103Z,30.97
2023-04-22T10:41:02.046Z,30.06
2023-04-22T10:42:03.416Z,31.18
2023-04-22T10:43:02.777Z,32.24
2023-04-22T10:44:02.041Z,30.64
2023-04-22T10:45:03.534Z,30.57
2023-04-22T10:46:02.950Z,31.26
2023-04-22T10:47:02.024Z,30.26
2023-04-22T10:48:03.877Z,31.07
2023-04-22T10:49:04.589Z,31.97
2023-04-22T10:50:01.964Z,33.21
2023-04-22T10:51:03.597Z,34.96
2023-04-22T10:52:02.959Z,35.79
2023-04-22T10:53:01.907Z,36.80
2023-04-22T10:54:03.776Z,36.10
2023-04-22T10:55:03.941Z,36.93
2023-04-22T10:56:02.336Z,38.45
2023-04-22T10:57:01.867Z,38.86
2023-04-22T10:58:03.579Z,38.09
2023-04-22T10:59:02.789Z,38.80
2023-04-22T11:00:01.859Z,39.40
2023-04-22T11:01:03.546Z,38.89
2023-04-22T11:02:03.182Z,39.10
2023-04-22T11:03:02.411Z,39.88
2023-04-22T11:04:02.936Z,39.50
2023-04-22T11:05:01.814Z,39.12
2023-04-22T11:06:03.518Z,40.12
2023-04-22T11:07:02.852Z,40.83
2023-04-22T11:08:01.788Z,41.11
2023-04-22T11:09:03.241Z,39.92
2023-04-22T11:10:02.749Z,40.52
2023-04-22T11:11:01.739Z,41.09
2023-04-22T11:12:03.522Z,39.60
2023-04-22T11:13:02.936Z,40.00
2023-04-22T11:14:01.738Z,39.38
2023-04-22T11:15:02.988Z,39.18
2023-04-22T11:16:02.446Z,39.28
2023-04-22T11:17:01.678Z,39.60
2023-04-22T11:18:03.048Z,39.52
2023-04-22T11:19:02.310Z,40.04
2023-04-22T11:20:01.662Z,39.65
2023-04-22T11:21:03.339Z,39.95
2023-04-22T11:22:02.725Z,39.56
2023-04-22T11:23:01.613Z,40.34
2023-04-22T11:24:02.348Z,39.76
2023-04-22T11:25:02.446Z,40.45
2023-04-22T11:26:02.391Z,40.56
2023-04-22T11:27:01.559Z,39.95
2023-04-22T11:28:03.150Z,40.25
2023-04-22T11:29:02.564Z,39.67
2023-04-22T11:30:01.540Z,39.98
2023-04-22T11:31:03.431Z,40.08
2023-04-22T11:32:02.605Z,40.97
2023-04-22T11:33:01.528Z,39.78
2023-04-22T11:34:03.123Z,38.57
2023-04-22T11:35:02.430Z,38.68
2023-04-22T11:36:01.487Z,39.18
2023-04-22T11:37:03.189Z,39.07
2023-04-22T11:38:02.670Z,40.47
2023-04-22T11:39:02.210Z,39.37
2023-04-22T11:40:27.386Z,41.05
2023-04-22T11:41:02.131Z,39.65
2023-04-22T11:42:02.318Z,38.84
2023-04-22T11:43:01.396Z,38.96
2023-04-22T11:44:03.153Z,38.85
2023-04-22T11:45:02.492Z,38.26
2023-04-22T11:46:02.043Z,38.76
2023-04-22T11:47:01.354Z,39.46
2023-04-22T11:48:02.981Z,39.84
2023-04-22T11:49:02.139Z,40.53
2023-04-22T11:50:02.029Z,39.64
2023-04-22T11:51:01.320Z,41.14
2023-04-22T11:52:02.005Z,40.34
2023-04-22T11:53:01.291Z,40.64
2023-04-22T11:54:02.018Z,41.53
2023-04-22T11:55:02.119Z,41.31
2023-04-22T11:56:01.289Z,40.34
2023-04-22T11:57:02.939Z,40.34
2023-04-22T11:58:02.037Z,40.94
2023-04-22T11:59:01.257Z,40.44
2023-04-22T12:00:01.971Z,40.06
2023-04-22T12:01:01.195Z,40.14
2023-04-22T12:02:02.894Z,40.75
2023-04-22T12:03:02.368Z,41.36
2023-04-22T12:04:01.407Z,42.25
2023-04-22T12:05:02.483Z,43.15
2023-04-22T12:06:01.703Z,41.55
2023-04-22T12:07:01.948Z,41.36
2023-04-22T12:08:01.999Z,41.67
2023-04-22T12:09:01.826Z,42.47
2023-04-22T12:10:01.986Z,41.88
2023-04-22T12:11:01.914Z,42.07
2023-04-22T12:12:01.937Z,42.07
2023-04-22T12:13:01.855Z,41.88
2023-04-22T12:14:01.065Z,40.66
2023-04-22T12:15:02.025Z,41.16
2023-04-22T12:16:01.669Z,41.25
2023-04-22T12:17:01.869Z,40.64
2023-04-22T12:18:01.693Z,40.34
2023-04-22T12:19:01.857Z,41.05
2023-04-22T12:20:01.927Z,40.36
2023-04-22T12:21:01.827Z,40.16
2023-04-22T12:22:01.735Z,40.73
2023-04-22T12:23:01.789Z,40.83
2023-04-22T12:24:01.773Z,40.94
2023-04-22T12:25:01.734Z,40.14
2023-04-22T12:26:01.663Z,40.86
2023-04-22T12:27:00.918Z,39.78
2023-04-22T12:28:01.745Z,40.37
2023-04-22T12:29:01.655Z,40.78
2023-04-22T12:30:01.695Z,41.19
2023-04-22T12:31:01.503Z,41.60
2023-04-22T12:32:00.897Z,40.81
2023-04-22T12:33:01.566Z,41.49
2023-04-22T12:34:01.810Z,41.19
2023-04-22T12:35:01.528Z,41.08
2023-04-22T12:36:01.674Z,40.58
2023-04-22T12:37:01.516Z,41.47
2023-04-22T12:38:01.643Z,41.49
2023-04-22T12:39:01.720Z,41.30
2023-04-22T12:40:01.861Z,41.19
2023-04-22T12:41:01.607Z,41.99
2023-04-22T12:42:01.631Z,41.99
2023-04-22T12:43:00.759Z,40.69
2023-04-22T12:44:01.551Z,40.78
2023-04-22T12:45:01.509Z,40.88
2023-04-22T12:46:00.811Z,40.67
2023-04-22T12:47:02.379Z,40.50
2023-04-22T12:48:01.359Z,41.19
2023-04-22T12:49:01.670Z,40.80
2023-04-22T12:50:01.351Z,41.47
2023-04-22T12:51:00.718Z,41.30
2023-04-22T12:52:01.428Z,41.38